Time;durP1;ratioP1;P1;durP2;ratioP2;P2;SDS_P1;SDS_P2;PMS_P1;PMS_P2;Temp;Humidity;BMP_temperature;BMP_pressure;BME280_temperature;BME280_humidity;BME280_pressure;Samples;Min_cycle;Max_cycle;Signal;HPM_P1;HPM_P2
2023/08/16 00:01:38;;;;;;;14.80;11.07;;;;;;;15.32;100.00;102027.94;5005153;28;20045;-60
2023/08/16 00:04:04;;;;;;;14.55;9.68;;;;;;;15.30;100.00;102027.16;5004433;28;20018;-61
2023/08/16 00:06:29;;;;;;;12.52;9.77;;;;;;;15.29;100.00;102025.41;5007676;28;20096;-61
2023/08/16 00:08:58;;;;;;;16.88;9.73;;;;;;;15.27;100.00;102025.47;5008474;28;20025;-60
2023/08/16 00:11:26;;;;;;;13.68;9.80;;;;;;;15.29;100.00;102020.97;5007893;28;20610;-61
2023/08/16 00:13:52;;;;;;;17.45;9.88;;;;;;;15.32;100.00;102016.47;5023943;28;20033;-63
2023/08/16 00:16:17;;;;;;;15.18;9.43;;;;;;;15.33;100.00;102013.78;5028950;28;20056;-63
2023/08/16 00:18:42;;;;;;;18.33;9.95;;;;;;;15.35;100.00;102009.25;5027149;28;20049;-61
2023/08/16 00:21:08;;;;;;;15.93;9.63;;;;;;;15.35;100.00;102016.38;5028806;28;20048;-59
2023/08/16 00:23:33;;;;;;;13.70;8.75;;;;;;;15.33;100.00;102011.13;5014027;28;20053;-62
2023/08/16 00:25:58;;;;;;;15.13;9.00;;;;;;;15.33;100.00;102011.13;5008264;28;20026;-61
2023/08/16 00:28:24;;;;;;;13.00;9.15;;;;;;;15.33;100.00;102005.81;5007608;28;20061;-57
2023/08/16 00:30:53;;;;;;;12.70;8.50;;;;;;;15.35;100.00;102017.22;5009710;28;20021;-58
2023/08/16 00:33:20;;;;;;;16.77;8.57;;;;;;;15.41;100.00;102017.00;5007544;28;20099;-57
2023/08/16 00:35:45;;;;;;;14.93;8.65;;;;;;;15.43;100.00;102016.09;5008865;28;20018;-61
2023/08/16 00:38:10;;;;;;;15.45;9.30;;;;;;;15.44;100.00;102023.16;5008121;28;20290;-62
2023/08/16 00:40:36;;;;;;;16.10;8.45;;;;;;;15.39;100.00;102028.63;5007577;28;20030;-58
2023/08/16 00:43:01;;;;;;;14.35;8.15;;;;;;;15.37;100.00;102033.09;5008101;28;20022;-55
2023/08/16 00:45:27;;;;;;;10.95;8.00;;;;;;;15.34;100.00;102033.22;5008607;28;20054;-62
2023/08/16 00:47:52;;;;;;;13.13;8.73;;;;;;;15.32;100.00;102041.22;5007954;28;20029;-60
2023/08/16 00:50:18;;;;;;;14.52;9.00;;;;;;;15.32;100.00;102043.88;5024173;28;20022;-61
2023/08/16 00:52:44;;;;;;;14.25;8.43;;;;;;;15.36;100.00;102039.34;5019357;28;20045;-60
2023/08/16 00:55:09;;;;;;;18.05;9.55;;;;;;;15.35;100.00;102035.81;5006658;28;20076;-64
2023/08/16 00:57:35;;;;;;;17.52;9.20;;;;;;;15.35;100.00;102035.81;5007364;28;20030;-60
2023/08/16 01:00:00;;;;;;;12.18;8.20;;;;;;;15.35;100.00;102040.28;5007501;28;20267;-61
2023/08/16 01:02:25;;;;;;;12.85;8.05;;;;;;;15.33;100.00;102042.09;5007969;28;20064;-60
2023/08/16 01:04:51;;;;;;;11.38;7.80;;;;;;;15.29;100.00;102038.69;5008163;28;20041;-61
2023/08/16 01:07:16;;;;;;;11.18;7.85;;;;;;;15.21;100.00;102036.31;5007367;28;20026;-60
2023/08/16 01:09:41;;;;;;;12.60;8.30;;;;;;;15.17;100.00;102037.31;5006140;28;20057;-62
2023/08/16 01:12:49;;;;;;;15.90;8.07;;;;;;;15.15;100.00;102047.97;5007804;28;20476;-61
2023/08/16 01:15:30;;;;;;;14.25;8.63;;;;;;;15.12;100.00;102044.59;5074402;22;20042;-62
2023/08/16 01:17:56;;;;;;;12.02;8.40;;;;;;;15.12;100.00;102041.94;5008287;28;20467;-62
2023/08/16 01:20:22;;;;;;;11.45;8.75;;;;;;;15.02;100.00;102044.88;5008884;28;20064;-57
2023/08/16 01:23:09;;;;;;;13.30;9.27;;;;;;;14.96;100.00;102041.59;5007676;28;20049;-59
2023/08/16 01:25:41;;;;;;;13.75;10.13;;;;;;;14.93;100.00;102047.00;5018501;28;20087;-62
2023/08/16 01:28:06;;;;;;;15.90;10.02;;;;;;;14.88;100.00;102053.31;5027080;28;20341;-57
2023/08/16 01:30:32;;;;;;;14.65;9.93;;;;;;;14.92;100.00;102056.72;5026752;28;20028;-64
2023/08/16 01:33:11;;;;;;;14.60;9.43;;;;;;;14.99;100.00;102062.72;5027413;28;20422;-61
2023/08/16 01:35:37;;;;;;;18.02;10.50;;;;;;;15.01;100.00;102058.22;5010534;28;20037;-60
2023/08/16 01:38:03;;;;;;;16.08;10.27;;;;;;;15.01;100.00;102059.09;5006995;28;20077;-58
2023/08/16 01:40:32;;;;;;;13.13;9.25;;;;;;;14.95;100.00;102069.91;5006302;28;20084;-62
2023/08/16 01:42:59;;;;;;;14.32;9.48;;;;;;;14.91;100.00;102069.13;5006406;28;20435;-63
2023/08/16 01:45:25;;;;;;;14.07;8.88;;;;;;;14.88;100.00;102071.03;5005412;28;20061;-59
2023/08/16 01:47:50;;;;;;;11.50;8.98;;;;;;;14.86;100.00;102079.03;5006302;28;20034;-59
2023/08/16 01:50:16;;;;;;;15.07;10.07;;;;;;;14.86;100.00;102078.16;5004748;28;20029;-60
2023/08/16 01:52:41;;;;;;;14.02;9.18;;;;;;;14.89;100.00;102078.94;5005870;28;20597;-63
2023/08/16 01:55:07;;;;;;;13.82;9.98;;;;;;;14.90;100.00;102075.34;5005336;28;20022;-54
2023/08/16 01:57:33;;;;;;;14.40;9.13;;;;;;;14.93;100.00;102069.06;5006911;28;20030;-62
2023/08/16 01:59:58;;;;;;;15.30;9.75;;;;;;;14.93;100.00;102062.91;5012740;28;20036;-61
2023/08/16 02:02:24;;;;;;;15.65;9.70;;;;;;;14.91;100.00;102061.16;5025972;28;20029;-65
2023/08/16 02:04:49;;;;;;;14.07;9.07;;;;;;;14.89;100.00;102070.97;5026320;28;20108;-61
2023/08/16 02:07:15;;;;;;;10.77;8.20;;;;;;;14.85;100.00;102071.13;5027017;28;20112;-61
2023/08/16 02:09:40;;;;;;;15.32;8.73;;;;;;;14.73;100.00;102073.22;5019624;28;20033;-63
2023/08/16 02:12:06;;;;;;;15.38;8.60;;;;;;;14.66;100.00;102072.53;5006710;28;20021;-60
2023/08/16 02:14:32;;;;;;;11.40;7.97;;;;;;;14.64;100.00;102073.50;5017570;28;20447;-62
2023/08/16 02:16:57;;;;;;;11.23;8.00;;;;;;;14.63;100.00;102077.94;5025812;28;20104;-60
2023/08/16 02:19:22;;;;;;;12.07;8.73;;;;;;;14.62;100.00;102072.69;5025569;28;20753;-58
2023/08/16 02:21:48;;;;;;;9.90;7.55;;;;;;;14.59;100.00;102072.78;5024900;28;20036;-60
2023/08/16 02:24:13;;;;;;;15.02;8.50;;;;;;;14.58;100.00;102068.38;5026048;28;20029;-60
2023/08/16 02:26:38;;;;;;;12.73;8.15;;;;;;;14.62;100.00;102067.38;5009197;28;20037;-61
2023/08/16 02:29:04;;;;;;;14.63;8.25;;;;;;;14.66;100.00;102072.53;5005654;28;20120;-61
2023/08/16 02:31:29;;;;;;;11.25;8.35;;;;;;;14.68;100.00;102074.25;5006069;28;20033;-62
2023/08/16 02:33:55;;;;;;;12.85;9.02;;;;;;;14.62;100.00;102078.84;5005944;28;20022;-62
2023/08/16 02:36:21;;;;;;;11.80;8.50;;;;;;;14.64;100.00;102090.31;5005786;28;20062;-60
2023/08/16 02:38:46;;;;;;;11.52;8.10;;;;;;;14.69;100.00;102076.88;5005909;28;20030;-60
2023/08/16 02:41:12;;;;;;;12.15;8.13;;;;;;;14.71;100.00;102077.69;5005256;28;20033;-62
2023/08/16 02:43:37;;;;;;;10.93;7.70;;;;;;;14.76;100.00;102075.78;5006296;28;20083;-60
2023/08/16 02:46:02;;;;;;;13.25;9.45;;;;;;;14.87;100.00;102070.13;5015414;28;20242;-61
2023/08/16 02:48:28;;;;;;;15.32;10.25;;;;;;;14.94;100.00;102073.47;5025909;28;20029;-61
2023/08/16 02:50:53;;;;;;;15.10;11.23;;;;;;;15.00;100.00;102075.06;5025214;28;20102;-63
2023/08/16 02:53:18;;;;;;;21.33;11.43;;;;;;;15.09;100.00;102080.06;5026310;28;20025;-58
2023/08/16 02:55:44;;;;;;;18.83;12.70;;;;;;;15.15;100.00;102074.53;5016915;28;20033;-62
2023/08/16 02:58:09;;;;;;;24.88;13.00;;;;;;;15.23;100.00;102074.28;5006469;28;20088;-61
2023/08/16 03:00:34;;;;;;;29.08;13.55;;;;;;;15.29;100.00;102071.41;5005140;28;20021;-61
2023/08/16 03:03:00;;;;;;;26.55;13.48;;;;;;;15.34;100.00;102079.22;5006376;28;20026;-64
2023/08/16 03:05:25;;;;;;;27.75;14.35;;;;;;;15.41;100.00;102075.44;5000632;28;20023;-59
2023/08/16 03:07:50;;;;;;;31.70;14.38;;;;;;;15.45;100.00;102078.00;4986856;28;20038;-63
2023/08/16 03:10:16;;;;;;;28.40;15.25;;;;;;;15.48;100.00;102076.09;4984893;28;20073;-60
2023/08/16 03:12:41;;;;;;;25.20;14.30;;;;;;;15.51;100.00;102080.44;4986592;28;20038;-61
2023/08/16 03:15:07;;;;;;;29.58;15.50;;;;;;;15.48;100.00;102081.44;4989876;28;20132;-61
2023/08/16 03:17:32;;;;;;;29.02;13.90;;;;;;;15.46;100.00;102077.06;5025113;28;20281;-61
2023/08/16 03:19:59;;;;;;;27.35;15.20;;;;;;;15.45;100.00;102078.00;5025308;28;20022;-61
2023/08/16 03:22:24;;;;;;;33.53;15.85;;;;;;;15.44;100.00;102078.94;5025270;28;20025;-62
2023/08/16 03:24:50;;;;;;;29.15;14.75;;;;;;;15.43;100.00;102080.69;5024545;28;20379;-59
2023/08/16 03:27:15;;;;;;;30.55;15.15;;;;;;;15.38;100.00;102083.50;5024736;28;20030;-62
2023/08/16 03:29:41;;;;;;;31.65;15.38;;;;;;;15.35;100.00;102080.97;5025225;28;20391;-57
2023/08/16 03:32:06;;;;;;;29.52;16.02;;;;;;;15.44;100.00;102089.53;5025276;28;20075;-61
2023/08/16 03:34:31;;;;;;;27.65;15.10;;;;;;;15.45;100.00;102091.28;5025606;28;20126;-62
2023/08/16 03:36:57;;;;;;;29.92;14.68;;;;;;;15.40;100.00;102092.31;5024537;28;20025;-62
2023/08/16 03:39:22;;;;;;;28.83;15.80;;;;;;;15.38;100.00;102102.09;5025011;28;20486;-61
2023/08/16 03:41:48;;;;;;;29.55;16.23;;;;;;;15.39;100.00;102093.19;5029258;28;20102;-58
2023/08/16 03:44:13;;;;;;;29.08;16.40;;;;;;;15.32;100.00;102090.84;5029293;28;20018;-61
2023/08/16 03:46:39;;;;;;;30.60;15.45;;;;;;;15.27;100.00;102101.59;5012201;28;20076;-60
2023/08/16 03:49:04;;;;;;;28.00;15.60;;;;;;;15.29;100.00;102102.41;5009326;28;20026;-61
2023/08/16 03:51:29;;;;;;;29.58;16.05;;;;;;;15.24;100.00;102099.94;5008650;28;20033;-60
2023/08/16 03:53:55;;;;;;;30.90;16.45;;;;;;;15.24;100.00;102099.94;5009896;28;20491;-62
2023/08/16 03:56:20;;;;;;;30.25;14.90;;;;;;;15.22;100.00;102108.84;5021959;28;20029;-61
2023/08/16 03:58:46;;;;;;;30.73;15.93;;;;;;;15.18;100.00;102101.91;5027394;28;20491;-62
2023/08/16 04:01:11;;;;;;;26.75;16.35;;;;;;;15.18;100.00;102099.25;5028425;28;20100;-61
2023/08/16 04:03:37;;;;;;;31.15;15.93;;;;;;;15.17;100.00;102098.38;5028659;28;20025;-60
2023/08/16 04:06:02;;;;;;;29.35;15.55;;;;;;;15.16;100.00;102097.53;5016935;28;20030;-61
2023/08/16 04:08:27;;;;;;;26.42;14.80;;;;;;;15.16;100.00;102094.88;5009249;28;20085;-54
2023/08/16 04:10:53;;;;;;;30.63;16.52;;;;;;;15.12;100.00;102095.91;5007444;28;20205;-63
2023/08/16 04:13:18;;;;;;;36.08;18.52;;;;;;;15.09;100.00;102096.00;5009478;28;20426;-58
2023/08/16 04:15:43;;;;;;;29.55;16.08;;;;;;;15.09;100.00;102093.34;5015536;28;20700;-60
2023/08/16 04:18:09;;;;;;;34.53;16.60;;;;;;;15.10;100.00;102097.72;5028078;28;20518;-59
2023/08/16 04:20:34;;;;;;;29.67;16.88;;;;;;;15.14;100.00;102096.69;5027803;28;20541;-61
2023/08/16 04:22:59;;;;;;;24.63;15.05;;;;;;;15.18;100.00;102102.78;5028670;28;20393;-61
2023/08/16 04:25:25;;;;;;;25.42;15.10;;;;;;;15.18;100.00;102099.25;5014355;28;20026;-61
2023/08/16 04:27:50;;;;;;;25.90;16.25;;;;;;;15.18;100.00;102104.56;4989181;28;20018;-63
2023/08/16 04:30:16;;;;;;;25.63;17.63;;;;;;;15.21;100.00;102110.66;4993367;28;20060;-62
2023/08/16 04:32:41;;;;;;;32.70;18.52;;;;;;;15.22;100.00;102111.50;5028463;28;20862;-62
2023/08/16 04:35:07;;;;;;;30.23;16.85;;;;;;;15.22;100.00;102111.50;5027048;28;20029;-59
2023/08/16 04:37:32;;;;;;;26.05;15.90;;;;;;;15.24;100.00;102102.59;5028454;28;20022;-62
2023/08/16 04:39:57;;;;;;;28.55;17.02;;;;;;;15.19;100.00;102101.84;5026462;28;20037;-60
2023/08/16 04:42:23;;;;;;;30.15;19.17;;;;;;;15.23;100.00;102107.94;5027297;28;20014;-62
2023/08/16 04:44:48;;;;;;;30.17;17.77;;;;;;;15.24;100.00;102104.38;5028372;28;20025;-53
2023/08/16 04:47:14;;;;;;;28.98;17.23;;;;;;;15.24;100.00;102101.72;5019603;28;20093;-53
2023/08/16 04:49:39;;;;;;;22.40;16.55;;;;;;;15.28;100.00;102104.22;4988554;28;20030;-59
2023/08/16 04:52:05;;;;;;;31.90;20.02;;;;;;;15.27;100.00;102104.25;4990166;28;20096;-61
2023/08/16 04:54:30;;;;;;;30.13;18.52;;;;;;;15.29;100.00;102107.72;5027633;28;20029;-63
2023/08/16 04:56:56;;;;;;;28.67;17.75;;;;;;;15.33;100.00;102108.50;5027171;28;20044;-62
2023/08/16 04:59:21;;;;;;;25.77;17.45;;;;;;;15.35;100.00;102107.50;5027880;28;20074;-61
2023/08/16 05:01:47;;;;;;;26.63;16.85;;;;;;;15.37;100.00;102104.81;5009899;28;20104;-59
2023/08/16 05:04:12;;;;;;;25.05;16.63;;;;;;;15.38;100.00;102107.41;5007355;28;20499;-60
2023/08/16 05:06:38;;;;;;;30.27;18.65;;;;;;;15.36;100.00;102114.59;5006837;28;20024;-59
2023/08/16 05:09:04;;;;;;;30.33;17.73;;;;;;;15.39;100.00;102108.28;5013993;28;20036;-61
2023/08/16 05:11:30;;;;;;;24.38;16.55;;;;;;;15.39;100.00;102109.13;5026172;28;20017;-61
2023/08/16 05:13:55;;;;;;;25.85;17.08;;;;;;;15.38;100.00;102114.53;5026837;28;20117;-61
2023/08/16 05:16:21;;;;;;;27.00;17.63;;;;;;;15.40;100.00;102108.25;5027142;28;20128;-57
2023/08/16 05:18:46;;;;;;;29.58;18.27;;;;;;;15.40;100.00;102115.31;5026682;28;20479;-61
2023/08/16 05:21:11;;;;;;;27.00;17.00;;;;;;;15.40;100.00;102113.56;5026557;28;20109;-61
2023/08/16 05:23:37;;;;;;;29.05;17.45;;;;;;;15.43;100.00;102109.03;5027163;28;20360;-62
2023/08/16 05:26:02;;;;;;;27.60;17.50;;;;;;;15.48;100.00;102115.06;5026381;28;20026;-62
2023/08/16 05:28:28;;;;;;;28.75;17.20;;;;;;;15.50;100.00;102119.41;5025255;28;20487;-60
2023/08/16 05:30:53;;;;;;;26.50;16.27;;;;;;;15.56;100.00;102120.13;5028069;28;20479;-61
2023/08/16 05:33:18;;;;;;;29.85;16.88;;;;;;;15.58;100.00;102121.81;5026728;28;20095;-61
2023/08/16 05:35:44;;;;;;;27.10;16.95;;;;;;;15.68;100.00;102124.16;5026389;28;20021;-59
2023/08/16 05:38:09;;;;;;;29.83;18.45;;;;;;;15.69;100.00;102120.56;5009286;28;20488;-60
2023/08/16 05:40:35;;;;;;;30.60;17.85;;;;;;;15.65;100.00;102133.94;5005560;28;20457;-61
2023/08/16 05:43:00;;;;;;;23.65;17.15;;;;;;;15.74;100.00;102129.25;5007016;28;20498;-62
2023/08/16 05:45:26;;;;;;;28.38;16.50;;;;;;;15.86;100.00;102130.59;5006348;28;20393;-62
2023/08/16 05:47:53;;;;;;;23.05;16.58;;;;;;;15.90;100.00;102129.56;5006686;28;20034;-61
2023/08/16 05:50:18;;;;;;;26.27;16.83;;;;;;;15.97;100.00;102135.53;5006146;28;20496;-61
2023/08/16 05:52:44;;;;;;;23.13;15.77;;;;;;;15.96;100.00;102131.13;5007218;28;20034;-61
2023/08/16 05:55:09;;;;;;;31.20;15.90;;;;;;;16.00;100.00;102128.34;5004875;28;20032;-61
2023/08/16 05:57:34;;;;;;;25.23;17.00;;;;;;;16.01;100.00;102139.81;5009175;28;20472;-62
2023/08/16 06:00:00;;;;;;;24.42;13.90;;;;;;;16.13;100.00;102141.16;5026230;28;20471;-60
2023/08/16 06:02:25;;;;;;;25.70;14.65;;;;;;;16.21;100.00;102138.22;5024454;28;20414;-60
2023/08/16 06:04:52;;;;;;;23.02;15.35;;;;;;;16.35;100.00;102140.38;5026834;28;20061;-61
2023/08/16 06:07:17;;;;;;;19.88;14.35;;;;;;;16.41;100.00;102146.31;5007434;28;20548;-62
2023/08/16 06:09:42;;;;;;;22.08;14.18;;;;;;;16.52;100.00;102147.72;5004586;28;20109;-60
2023/08/16 06:12:08;;;;;;;19.20;13.38;;;;;;;16.57;100.00;102147.53;5006860;28;20073;-61
2023/08/16 06:14:33;;;;;;;22.85;12.57;;;;;;;16.62;100.00;102149.09;4993788;28;20489;-62
2023/08/16 06:16:59;;;;;;;20.13;11.93;;;;;;;16.64;100.00;102147.25;4986182;28;20030;-62
2023/08/16 06:19:24;;;;;;;22.65;13.98;;;;;;;16.67;100.00;102149.78;4986057;28;20022;-59
2023/08/16 06:21:50;;;;;;;17.50;13.23;;;;;;;16.71;100.00;102153.22;4986962;28;20230;-58
2023/08/16 06:24:15;;;;;;;16.60;11.55;;;;;;;16.75;100.00;102143.28;4984970;28;20022;-62
2023/08/16 06:26:40;;;;;;;16.15;12.13;;;;;;;16.73;100.00;102147.81;4985654;28;20026;-62
2023/08/16 06:29:06;;;;;;;17.73;11.85;;;;;;;16.74;100.00;102150.41;4987719;28;20053;-63
2023/08/16 06:31:32;;;;;;;17.05;11.23;;;;;;;16.80;100.00;102144.00;5025034;28;20025;-61
2023/08/16 06:34:00;;;;;;;17.42;11.73;;;;;;;16.89;100.00;102151.59;5025089;28;20055;-63
2023/08/16 06:36:26;;;;;;;11.85;9.95;;;;;;;17.02;100.00;102152.00;5025752;28;20045;-66
2023/08/16 06:38:52;;;;;;;16.45;10.75;;;;;;;17.09;100.00;102155.28;5010616;28;20371;-61
2023/08/16 06:41:17;;;;;;;17.45;10.35;;;;;;;17.16;100.00;102159.44;5005241;28;20029;-62
2023/08/16 06:43:43;;;;;;;14.27;8.68;;;;;;;17.26;100.00;102159.94;5004278;28;20117;-62
2023/08/16 06:46:08;;;;;;;15.13;10.23;;;;;;;17.30;100.00;102156.22;5005426;28;20028;-62
2023/08/16 06:48:33;;;;;;;13.10;8.77;;;;;;;17.39;100.00;102159.41;5005311;28;20021;-62
2023/08/16 06:50:59;;;;;;;17.02;10.00;;;;;;;17.50;100.00;102165.16;5019246;28;20056;-62
2023/08/16 06:53:25;;;;;;;12.77;9.60;;;;;;;17.64;100.00;102159.22;5025642;28;20032;-62
2023/08/16 06:55:53;;;;;;;12.90;10.13;;;;;;;17.71;100.00;102162.53;5023571;28;20033;-60
2023/08/16 06:58:18;;;;;;;11.57;8.98;;;;;;;17.75;100.00;102156.13;5025663;28;20064;-64
2023/08/16 07:00:45;;;;;;;15.65;9.88;;;;;;;17.77;100.00;102158.72;5024537;28;20095;-60
2023/08/16 07:03:10;;;;;;;12.75;8.30;;;;;;;17.85;100.00;102167.22;5022839;28;20029;-63
2023/08/16 07:05:36;;;;;;;16.08;8.40;;;;;;;17.98;100.00;102166.69;5005649;28;20080;-62
2023/08/16 07:08:01;;;;;;;12.43;8.13;;;;;;;18.03;100.00;102162.03;5004611;28;20026;-62
2023/08/16 07:10:27;;;;;;;11.93;7.15;;;;;;;18.08;100.00;102168.03;5004279;28;20037;-59
2023/08/16 07:12:52;;;;;;;11.57;7.85;;;;;;;18.16;100.00;102171.25;5006162;28;20021;-60
2023/08/16 07:15:17;;;;;;;11.80;7.20;;;;;;;18.22;100.00;102171.91;5005373;28;20073;-58
2023/08/16 07:17:43;;;;;;;9.50;7.22;;;;;;;18.30;100.00;102164.41;5024529;28;20431;-61
2023/08/16 07:20:08;;;;;;;8.57;7.32;;;;;;;18.40;100.00;102156.84;5024070;28;20030;-62
2023/08/16 07:22:39;;;;;;;12.25;7.85;;;;;;;18.60;100.00;102166.59;5010471;28;20088;-57
2023/08/16 07:25:10;;;;;;;10.93;7.18;;;;;;;18.74;100.00;102171.28;5005167;28;20025;-61
2023/08/16 07:27:35;;;;;;;9.80;6.78;;;;;;;18.92;100.00;102169.53;5002434;28;20034;-60
2023/08/16 07:30:01;;;;;;;9.13;6.30;;;;;;;19.12;100.00;102166.88;5006122;28;20060;-63
2023/08/16 07:32:27;;;;;;;7.15;5.35;;;;;;;19.23;100.00;102177.88;5004330;28;20045;-60
2023/08/16 07:34:52;;;;;;;8.80;5.00;;;;;;;19.33;100.00;102167.63;4990396;28;20298;-58
2023/08/16 07:37:18;;;;;;;6.68;4.90;;;;;;;19.43;100.00;102165.34;4986451;28;20034;-62
2023/08/16 07:39:44;;;;;;;7.93;4.97;;;;;;;19.62;100.00;102173.28;4994982;28;20025;-62
2023/08/16 07:42:09;;;;;;;6.40;4.63;;;;;;;19.78;100.00;102176.00;5025478;28;20029;-60
2023/08/16 07:44:35;;;;;;;10.73;4.93;;;;;;;19.79;100.00;102168.88;5023734;28;20421;-62
2023/08/16 07:47:01;;;;;;;8.65;4.60;;;;;;;19.92;100.00;102174.44;5008792;28;20407;-60
2023/08/16 07:49:27;;;;;;;6.03;4.22;;;;;;;20.02;100.00;102175.69;5004347;28;20109;-62
2023/08/16 07:51:55;;;;;;;7.55;4.07;;;;;;;20.07;100.00;102173.66;5008526;28;20036;-60
2023/08/16 07:54:20;;;;;;;8.63;4.13;;;;;;;20.09;100.00;102176.25;5025197;28;20037;-61
2023/08/16 07:56:45;;;;;;;6.85;3.83;;;;;;;20.14;100.00;102187.56;5023787;28;20452;-63
2023/08/16 07:59:11;;;;;;;7.38;3.63;;;;;;;20.28;100.00;102186.84;5025199;28;20077;-62
2023/08/16 08:01:36;;;;;;;8.20;4.38;;;;;;;20.42;100.00;102180.75;5005856;28;20154;-63
2023/08/16 08:04:02;;;;;;;9.48;4.00;;;;;;;20.49;100.00;102183.94;5024215;28;20029;-63
2023/08/16 08:06:28;;;;;;;7.85;3.35;;;;;;;20.51;100.00;102182.03;5023535;28;20492;-65
2023/08/16 08:08:53;;;;;;;7.82;3.95;;;;;;;20.52;100.00;102182.88;5026009;28;20025;-59
2023/08/16 08:11:18;;;;;;;7.28;3.10;;;;;;;20.30;100.00;102184.06;5026092;28;20044;-60
2023/08/16 08:13:44;;;;;;;7.10;3.10;;;;;;;20.49;100.00;102193.75;5024816;28;20045;-59
2023/08/16 08:16:09;;;;;;;7.75;2.67;;;;;;;20.82;100.00;102190.16;5023245;28;20044;-63
2023/08/16 08:18:34;;;;;;;5.05;2.28;;;;;;;20.86;100.00;102189.03;5015406;28;20502;-61
2023/08/16 08:21:00;;;;;;;7.00;3.22;;;;;;;20.86;100.00;102186.34;5003740;28;20050;-63
2023/08/16 08:23:26;;;;;;;4.57;2.42;;;;;;;21.06;100.00;102187.06;5004877;28;20104;-64
2023/08/16 08:25:51;;;;;;;6.60;2.17;;;;;;;21.02;100.00;102190.88;5005843;28;20109;-63
2023/08/16 08:28:18;;;;;;;4.90;2.15;;;;;;;21.27;100.00;102190.34;5008403;28;20109;-65
2023/08/16 08:30:44;;;;;;;5.55;2.33;;;;;;;21.41;100.00;102194.03;5000592;28;20033;-63
2023/08/16 08:33:10;;;;;;;4.75;1.92;;;;;;;21.44;100.00;102197.41;5007286;28;20107;-58
2023/08/16 08:35:35;;;;;;;4.30;1.90;;;;;;;21.71;100.00;102201.22;5008533;28;20520;-63
2023/08/16 08:38:01;;;;;;;3.35;1.33;;;;;;;21.65;100.00;102204.25;5007223;28;20435;-60
2023/08/16 08:40:29;;;;;;;5.38;1.90;;;;;;;21.51;100.00;102197.03;5001612;28;20022;-64
2023/08/16 08:42:58;;;;;;;4.60;2.10;;;;;;;21.36;100.00;102202.34;5008237;28;20022;-60
2023/08/16 08:45:23;;;;;;;4.30;1.80;;;;;;;21.28;100.00;102208.13;5005939;28;20029;-59
2023/08/16 08:47:49;;;;;;;5.38;1.80;;;;;;;21.56;100.00;102205.66;5008796;28;20042;-62
2023/08/16 08:50:14;;;;;;;5.28;1.40;;;;;;;21.62;100.00;102199.94;5006196;28;20118;-59
2023/08/16 08:52:41;;;;;;;3.67;1.50;;;;;;;21.27;100.00;102201.06;5004545;28;20018;-56
2023/08/16 08:55:06;;;;;;;4.45;1.55;;;;;;;21.60;100.00;102209.88;5007447;28;20029;-63
2023/08/16 08:57:33;;;;;;;2.70;1.20;;;;;;;21.65;100.00;102210.50;5006451;28;20403;-59
2023/08/16 09:00:00;;;;;;;1.88;1.48;;;;;;;21.52;100.00;102213.00;5007446;28;20029;-60
2023/08/16 09:02:30;;;;;;;3.58;1.30;;;;;;;21.33;100.00;102218.59;5006395;28;20428;-61
2023/08/16 09:04:57;;;;;;;2.28;1.35;;;;;;;21.49;100.00;102215.88;5006995;28;20388;-59
2023/08/16 09:07:23;;;;;;;4.45;1.63;;;;;;;21.46;100.00;102219.63;5002194;28;20586;-63
2023/08/16 09:09:49;;;;;;;4.07;1.40;;;;;;;21.57;100.00;102224.34;5005690;28;20026;-60
2023/08/16 09:12:15;;;;;;;4.55;1.63;;;;;;;21.78;100.00;102220.50;5007330;28;20284;-63
2023/08/16 09:14:40;;;;;;;3.53;1.48;;;;;;;21.92;100.00;102219.69;5006840;28;20050;-60
2023/08/16 09:17:05;;;;;;;2.92;1.60;;;;;;;21.89;100.00;102217.19;5005199;28;20018;-64
2023/08/16 09:19:31;;;;;;;5.20;2.10;;;;;;;21.89;100.00;102222.53;5007370;28;20064;-61
2023/08/16 09:21:56;;;;;;;4.93;1.60;;;;;;;21.98;100.00;102221.13;5005576;28;20022;-61
2023/08/16 09:24:26;;;;;;;2.80;1.55;;;;;;;21.86;100.00;102220.91;5006753;28;20025;-63
2023/08/16 09:26:52;;;;;;;1.80;1.65;;;;;;;21.89;100.00;102214.50;5002407;28;20398;-57
2023/08/16 09:29:17;;;;;;;5.13;1.52;;;;;;;21.78;100.00;102228.53;5006642;28;20032;-59
2023/08/16 09:31:43;;;;;;;3.35;1.70;;;;;;;21.90;100.00;102216.22;5008241;28;20416;-61
2023/08/16 09:34:11;;;;;;;5.85;1.70;;;;;;;21.85;100.00;102221.84;5006179;28;20022;-58
2023/08/16 09:36:36;;;;;;;4.85;1.60;;;;;;;21.99;100.00;102210.28;5012964;28;20075;-62
2023/08/16 09:39:07;;;;;;;4.15;1.50;;;;;;;21.94;100.00;102212.38;5025303;28;20060;-61
2023/08/16 09:41:32;;;;;;;3.35;1.48;;;;;;;22.22;100.00;102208.03;5018809;28;20476;-60
2023/08/16 09:44:05;;;;;;;5.88;1.55;;;;;;;22.01;100.00;102204.84;5005112;28;20040;-63
2023/08/16 09:46:32;;;;;;;2.95;1.27;;;;;;;22.25;100.00;102204.28;5016368;28;20060;-63
2023/08/16 09:49:03;;;;;;;3.47;1.50;;;;;;;21.87;98.32;102211.91;5022265;28;20022;-59
2023/08/16 09:51:31;;;;;;;2.50;1.40;;;;;;;22.31;97.21;102202.06;5005086;28;20600;-57
2023/08/16 09:53:57;;;;;;;4.40;1.63;;;;;;;22.53;95.37;102205.22;5004043;28;20092;-65
2023/08/16 09:56:24;;;;;;;6.35;1.25;;;;;;;22.71;92.84;102198.72;5005524;28;20424;-55
2023/08/16 09:58:50;;;;;;;2.38;1.20;;;;;;;22.80;93.48;102199.06;5007282;28;20384;-63
2023/08/16 10:01:15;;;;;;;1.52;1.02;;;;;;;23.04;89.96;102201.13;5020151;28;20029;-56
2023/08/16 10:03:41;;;;;;;2.50;1.10;;;;;;;23.03;88.42;102196.72;5005038;28;20350;-65
2023/08/16 10:06:06;;;;;;;1.33;0.98;;;;;;;23.05;88.61;102201.00;4996520;28;20440;-59
2023/08/16 10:08:33;;;;;;;2.83;1.10;;;;;;;22.72;87.63;102199.56;5004438;28;20480;-63
2023/08/16 10:10:59;;;;;;;0.90;0.90;;;;;;;22.65;89.14;102203.59;5005176;28;20021;-62
2023/08/16 10:13:24;;;;;;;3.78;1.20;;;;;;;22.75;86.88;102203.88;5004285;28;20022;-65
2023/08/16 10:15:50;;;;;;;1.60;1.08;;;;;;;22.89;85.32;102200.28;5006651;28;20050;-63
2023/08/16 10:18:17;;;;;;;2.25;1.15;;;;;;;22.96;84.85;102191.72;5005003;28;20096;-60
2023/08/16 10:20:45;;;;;;;1.75;0.95;;;;;;;22.96;87.30;102191.72;5005902;28;20511;-62
2023/08/16 10:23:11;;;;;;;3.22;1.20;;;;;;;23.06;88.03;102193.81;5005762;28;20034;-63
2023/08/16 10:25:46;;;;;;;4.32;1.40;;;;;;;23.31;88.47;102200.25;5005887;28;20071;-60
2023/08/16 10:28:14;;;;;;;3.97;1.10;;;;;;;23.49;88.82;102200.88;5006059;28;20034;-58
2023/08/16 10:30:42;;;;;;;2.47;1.00;;;;;;;23.44;87.84;102194.91;5006376;28;20026;-56
2023/08/16 10:33:33;;;;;;;2.65;1.02;;;;;;;23.66;90.12;102194.31;5006316;28;20076;-60
2023/08/16 10:36:00;;;;;;;4.22;1.30;;;;;;;23.79;90.51;102186.28;5005000;28;20026;-61
2023/08/16 10:38:43;;;;;;;2.55;1.10;;;;;;;23.53;85.21;102191.63;5004012;28;20088;-64
2023/08/16 10:41:12;;;;;;;4.22;1.35;;;;;;;23.51;83.94;102190.84;5004923;28;20065;-64
2023/08/16 10:43:38;;;;;;;1.30;1.00;;;;;;;23.85;84.81;102199.31;5005528;28;20438;-63
2023/08/16 10:46:04;;;;;;;2.28;1.20;;;;;;;24.04;85.96;102194.44;5006232;28;20218;-65
2023/08/16 10:48:35;;;;;;;2.25;1.10;;;;;;;24.34;84.42;102195.97;5005003;28;20025;-58
2023/08/16 10:51:06;;;;;;;3.92;0.85;;;;;;;23.91;85.43;102187.25;5006628;28;20104;-57
2023/08/16 10:53:33;;;;;;;3.50;1.05;;;;;;;24.17;85.79;102197.19;5005333;28;20026;-60
2023/08/16 10:55:58;;;;;;;2.97;1.25;;;;;;;24.45;82.74;102193.38;5005968;28;20025;-65
2023/08/16 10:58:24;;;;;;;4.82;1.15;;;;;;;24.41;83.79;102189.16;5003587;28;20052;-58
2023/08/16 11:00:57;;;;;;;2.65;1.17;;;;;;;24.43;84.93;102195.31;5006850;28;20034;-63
2023/08/16 11:03:30;;;;;;;3.58;1.13;;;;;;;24.39;83.68;102196.50;5005905;28;20030;-64
2023/08/16 11:06:00;;;;;;;3.25;1.20;;;;;;;24.88;81.31;102195.75;5005364;28;20819;-65